sensor_id;sensor_type;location;lat;lon;timestamp;P1;durP1;ratioP1;P2;durP2;ratioP2
39082;SDS011;24834;44.444;26.098;2023-07-08T00:02:07;13.75;;;12.75;;
39082;SDS011;24834;44.444;26.098;2023-07-08T00:08:15;14.00;;;12.50;;
39082;SDS011;24834;44.444;26.098;2023-07-08T00:14:18;13.25;;;13.25;;
39082;SDS011;24834;44.444;26.098;2023-07-08T00:20:23;15.00;;;15.00;;
39082;SDS011;24834;44.444;26.098;2023-07-08T00:26:32;12.50;;;12.50;;
39082;SDS011;24834;44.444;26.098;2023-07-08T00:32:35;16.00;;;14.00;;
39082;SDS011;24834;44.444;26.098;2023-07-08T00:38:44;14.00;;;12.25;;
39082;SDS011;24834;44.444;26.098;2023-07-08T00:44:49;16.00;;;11.00;;
39082;SDS011;24834;44.444;26.098;2023-07-08T00:50:51;11.75;;;11.75;;
39082;SDS011;24834;44.444;26.098;2023-07-08T00:56:58;15.75;;;14.00;;
39082;SDS011;24834;44.444;26.098;2023-07-08T01:03:04;14.25;;;13.75;;
39082;SDS011;24834;44.444;26.098;2023-07-08T01:09:08;14.50;;;14.00;;
39082;SDS011;24834;44.444;26.098;2023-07-08T01:15:13;16.00;;;12.50;;
39082;SDS011;24834;44.444;26.098;2023-07-08T01:21:28;11.25;;;11.25;;
39082;SDS011;24834;44.444;26.098;2023-07-08T01:27:38;15.00;;;14.25;;
39082;SDS011;24834;44.444;26.098;2023-07-08T01:33:45;12.00;;;12.00;;
39082;SDS011;24834;44.444;26.098;2023-07-08T01:39:47;15.75;;;15.00;;
39082;SDS011;24834;44.444;26.098;2023-07-08T01:45:50;16.00;;;14.33;;
39082;SDS011;24834;44.444;26.098;2023-07-08T01:51:57;18.00;;;16.25;;
39082;SDS011;24834;44.444;26.098;2023-07-08T01:58:01;15.25;;;15.25;;
39082;SDS011;24834;44.444;26.098;2023-07-08T02:04:04;15.33;;;15.00;;
39082;SDS011;24834;44.444;26.098;2023-07-08T02:10:06;15.75;;;15.75;;
39082;SDS011;24834;44.444;26.098;2023-07-08T02:16:09;21.33;;;16.67;;
39082;SDS011;24834;44.444;26.098;2023-07-08T02:22:13;19.67;;;16.33;;
39082;SDS011;24834;44.444;26.098;2023-07-08T02:28:16;16.50;;;15.75;;
39082;SDS011;24834;44.444;26.098;2023-07-08T02:34:19;15.00;;;15.00;;
39082;SDS011;24834;44.444;26.098;2023-07-08T02:40:21;13.75;;;13.25;;
39082;SDS011;24834;44.444;26.098;2023-07-08T02:46:25;16.50;;;15.00;;
39082;SDS011;24834;44.444;26.098;2023-07-08T02:52:28;19.33;;;17.67;;
39082;SDS011;24834;44.444;26.098;2023-07-08T02:58:31;16.25;;;16.25;;
39082;SDS011;24834;44.444;26.098;2023-07-08T03:04:37;16.00;;;15.00;;
39082;SDS011;24834;44.444;26.098;2023-07-08T03:10:47;17.00;;;15.50;;
39082;SDS011;24834;44.444;26.098;2023-07-08T03:16:55;18.67;;;17.00;;
39082;SDS011;24834;44.444;26.098;2023-07-08T03:23:01;16.75;;;16.50;;
39082;SDS011;24834;44.444;26.098;2023-07-08T03:29:04;16.50;;;14.00;;
39082;SDS011;24834;44.444;26.098;2023-07-08T03:35:07;15.50;;;14.25;;
39082;SDS011;24834;44.444;26.098;2023-07-08T03:41:14;16.00;;;14.00;;
39082;SDS011;24834;44.444;26.098;2023-07-08T03:47:17;19.50;;;14.00;;
39082;SDS011;24834;44.444;26.098;2023-07-08T03:53:22;16.00;;;16.00;;
39082;SDS011;24834;44.444;26.098;2023-07-08T03:59:27;17.25;;;15.50;;
39082;SDS011;24834;44.444;26.098;2023-07-08T04:05:32;12.75;;;12.50;;
39082;SDS011;24834;44.444;26.098;2023-07-08T04:11:35;15.00;;;13.00;;
39082;SDS011;24834;44.444;26.098;2023-07-08T04:17:45;12.25;;;12.25;;
39082;SDS011;24834;44.444;26.098;2023-07-08T06:30:26;13.33;;;12.67;;
39082;SDS011;24834;44.444;26.098;2023-07-08T06:36:28;11.00;;;11.00;;
39082;SDS011;24834;44.444;26.098;2023-07-08T06:42:30;6.75;;;6.75;;
39082;SDS011;24834;44.444;26.098;2023-07-08T06:48:46;6.50;;;6.50;;
39082;SDS011;24834;44.444;26.098;2023-07-08T06:54:48;11.50;;;9.75;;
39082;SDS011;24834;44.444;26.098;2023-07-08T07:00:50;10.00;;;8.00;;
39082;SDS011;24834;44.444;26.098;2023-07-08T07:06:53;6.75;;;6.75;;
39082;SDS011;24834;44.444;26.098;2023-07-08T07:12:59;9.00;;;9.00;;
39082;SDS011;24834;44.444;26.098;2023-07-08T07:19:02;8.00;;;8.00;;
39082;SDS011;24834;44.444;26.098;2023-07-08T07:25:04;6.75;;;6.75;;
39082;SDS011;24834;44.444;26.098;2023-07-08T07:31:07;6.75;;;6.75;;
39082;SDS011;24834;44.444;26.098;2023-07-08T07:37:13;6.00;;;6.00;;
39082;SDS011;24834;44.444;26.098;2023-07-08T07:43:17;7.50;;;6.25;;
39082;SDS011;24834;44.444;26.098;2023-07-08T07:49:21;8.50;;;7.50;;
39082;SDS011;24834;44.444;26.098;2023-07-08T07:55:24;11.75;;;8.75;;
39082;SDS011;24834;44.444;26.098;2023-07-08T08:01:28;8.25;;;8.25;;
39082;SDS011;24834;44.444;26.098;2023-07-08T08:07:30;6.75;;;6.75;;
39082;SDS011;24834;44.444;26.098;2023-07-08T08:13:33;9.25;;;8.25;;
39082;SDS011;24834;44.444;26.098;2023-07-08T08:19:36;9.00;;;9.00;;
39082;SDS011;24834;44.444;26.098;2023-07-08T08:25:39;6.00;;;6.00;;
39082;SDS011;24834;44.444;26.098;2023-07-08T08:31:42;11.50;;;8.75;;
39082;SDS011;24834;44.444;26.098;2023-07-08T08:37:45;8.25;;;7.00;;
39082;SDS011;24834;44.444;26.098;2023-07-08T08:43:48;10.50;;;6.75;;
39082;SDS011;24834;44.444;26.098;2023-07-08T08:49:57;7.75;;;7.50;;
39082;SDS011;24834;44.444;26.098;2023-07-08T08:56:14;5.50;;;5.50;;
39082;SDS011;24834;44.444;26.098;2023-07-08T09:08:54;6.25;;;6.25;;
39082;SDS011;24834;44.444;26.098;2023-07-08T09:15:09;8.00;;;8.00;;
39082;SDS011;24834;44.444;26.098;2023-07-08T09:21:17;9.00;;;9.00;;
39082;SDS011;24834;44.444;26.098;2023-07-08T09:27:23;7.75;;;7.75;;
39082;SDS011;24834;44.444;26.098;2023-07-08T09:33:25;8.50;;;8.00;;
39082;SDS011;24834;44.444;26.098;2023-07-08T09:39:31;9.00;;;9.00;;
39082;SDS011;24834;44.444;26.098;2023-07-08T09:45:46;9.50;;;8.75;;
39082;SDS011;24834;44.444;26.098;2023-07-08T09:51:50;7.00;;;6.50;;
39082;SDS011;24834;44.444;26.098;2023-07-08T09:57:57;8.00;;;7.00;;
39082;SDS011;24834;44.444;26.098;2023-07-08T10:04:06;7.00;;;6.75;;
39082;SDS011;24834;44.444;26.098;2023-07-08T10:10:10;10.00;;;10.00;;
39082;SDS011;24834;44.444;26.098;2023-07-08T10:28:41;7.50;;;7.50;;
39082;SDS011;24834;44.444;26.098;2023-07-08T10:34:51;8.75;;;8.00;;
39082;SDS011;24834;44.444;26.098;2023-07-08T10:41:00;7.75;;;7.75;;
39082;SDS011;24834;44.444;26.098;2023-07-08T10:53:44;7.75;;;7.75;;
39082;SDS011;24834;44.444;26.098;2023-07-08T11:00:00;4.50;;;4.25;;
39082;SDS011;24834;44.444;26.098;2023-07-08T11:06:29;8.75;;;8.75;;
39082;SDS011;24834;44.444;26.098;2023-07-08T11:12:51;8.25;;;8.25;;
39082;SDS011;24834;44.444;26.098;2023-07-08T11:19:24;10.50;;;9.00;;
39082;SDS011;24834;44.444;26.098;2023-07-08T11:25:30;7.50;;;7.50;;
39082;SDS011;24834;44.444;26.098;2023-07-08T11:31:34;6.75;;;6.75;;
39082;SDS011;24834;44.444;26.098;2023-07-08T11:37:37;8.50;;;7.75;;
39082;SDS011;24834;44.444;26.098;2023-07-08T11:43:48;4.50;;;3.50;;
39082;SDS011;24834;44.444;26.098;2023-07-08T11:49:54;6.50;;;6.00;;
39082;SDS011;24834;44.444;26.098;2023-07-08T11:56:22;7.00;;;6.50;;
39082;SDS011;24834;44.444;26.098;2023-07-08T12:02:27;7.75;;;6.75;;
39082;SDS011;24834;44.444;26.098;2023-07-08T12:08:48;5.00;;;5.00;;
39082;SDS011;24834;44.444;26.098;2023-07-08T12:15:04;7.25;;;6.25;;
39082;SDS011;24834;44.444;26.098;2023-07-08T12:21:13;5.00;;;4.75;;
39082;SDS011;24834;44.444;26.098;2023-07-08T12:27:16;7.00;;;6.25;;
39082;SDS011;24834;44.444;26.098;2023-07-08T12:33:24;5.75;;;5.75;;
39082;SDS011;24834;44.444;26.098;2023-07-08T12:39:33;5.50;;;5.00;;
39082;SDS011;24834;44.444;26.098;2023-07-08T12:45:38;5.75;;;5.25;;
39082;SDS011;24834;44.444;26.098;2023-07-08T12:51:42;6.50;;;6.50;;
39082;SDS011;24834;44.444;26.098;2023-07-08T12:57:49;6.50;;;6.50;;
39082;SDS011;24834;44.444;26.098;2023-07-08T13:03:54;8.00;;;8.00;;
39082;SDS011;24834;44.444;26.098;2023-07-08T13:10:05;4.25;;;4.25;;
39082;SDS011;24834;44.444;26.098;2023-07-08T13:16:11;6.75;;;6.00;;
39082;SDS011;24834;44.444;26.098;2023-07-08T13:22:16;5.50;;;5.50;;
39082;SDS011;24834;44.444;26.098;2023-07-08T13:28:26;8.50;;;7.75;;
39082;SDS011;24834;44.444;26.098;2023-07-08T13:34:39;8.00;;;8.00;;
39082;SDS011;24834;44.444;26.098;2023-07-08T13:40:45;4.50;;;4.25;;
39082;SDS011;24834;44.444;26.098;2023-07-08T13:46:55;6.00;;;6.00;;
39082;SDS011;24834;44.444;26.098;2023-07-08T13:53:00;6.00;;;6.00;;
39082;SDS011;24834;44.444;26.098;2023-07-08T13:59:06;6.50;;;6.50;;
39082;SDS011;24834;44.444;26.098;2023-07-08T14:05:13;7.75;;;7.00;;
39082;SDS011;24834;44.444;26.098;2023-07-08T14:11:17;8.50;;;7.25;;
39082;SDS011;24834;44.444;26.098;2023-07-08T14:17:23;6.25;;;6.25;;
39082;SDS011;24834;44.444;26.098;2023-07-08T14:23:28;6.00;;;6.00;;
39082;SDS011;24834;44.444;26.098;2023-07-08T14:29:30;8.00;;;6.75;;
39082;SDS011;24834;44.444;26.098;2023-07-08T14:35:34;6.00;;;6.00;;
39082;SDS011;24834;44.444;26.098;2023-07-08T14:41:38;10.25;;;9.00;;
39082;SDS011;24834;44.444;26.098;2023-07-08T14:47:58;9.25;;;7.00;;
39082;SDS011;24834;44.444;26.098;2023-07-08T14:54:01;6.75;;;6.50;;
39082;SDS011;24834;44.444;26.098;2023-07-08T15:00:03;9.00;;;7.50;;
39082;SDS011;24834;44.444;26.098;2023-07-08T15:06:09;6.50;;;6.00;;
39082;SDS011;24834;44.444;26.098;2023-07-08T15:12:12;7.75;;;7.75;;
39082;SDS011;24834;44.444;26.098;2023-07-08T15:18:16;7.00;;;7.00;;
39082;SDS011;24834;44.444;26.098;2023-07-08T15:24:20;6.25;;;6.25;;
39082;SDS011;24834;44.444;26.098;2023-07-08T15:30:27;7.50;;;7.50;;
39082;SDS011;24834;44.444;26.098;2023-07-08T15:36:30;12.00;;;10.00;;
39082;SDS011;24834;44.444;26.098;2023-07-08T15:42:36;8.00;;;8.00;;
39082;SDS011;24834;44.444;26.098;2023-07-08T15:48:45;10.75;;;10.75;;
39082;SDS011;24834;44.444;26.098;2023-07-08T15:54:49;9.50;;;9.25;;
39082;SDS011;24834;44.444;26.098;2023-07-08T16:00:52;7.00;;;7.00;;
39082;SDS011;24834;44.444;26.098;2023-07-08T16:06:55;8.25;;;7.75;;
39082;SDS011;24834;44.444;26.098;2023-07-08T16:12:57;10.00;;;9.00;;
39082;SDS011;24834;44.444;26.098;2023-07-08T16:19:01;7.50;;;6.25;;
39082;SDS011;24834;44.444;26.098;2023-07-08T16:25:04;9.00;;;9.00;;
39082;SDS011;24834;44.444;26.098;2023-07-08T16:31:14;10.00;;;8.00;;
39082;SDS011;24834;44.444;26.098;2023-07-08T16:37:23;6.75;;;6.75;;
39082;SDS011;24834;44.444;26.098;2023-07-08T16:43:28;10.50;;;9.50;;
39082;SDS011;24834;44.444;26.098;2023-07-08T16:49:34;9.50;;;9.25;;
39082;SDS011;24834;44.444;26.098;2023-07-08T16:55:39;9.00;;;7.50;;
39082;SDS011;24834;44.444;26.098;2023-07-08T17:01:45;7.25;;;7.25;;
39082;SDS011;24834;44.444;26.098;2023-07-08T17:07:48;6.50;;;6.25;;
39082;SDS011;24834;44.444;26.098;2023-07-08T17:13:52;10.00;;;10.00;;
39082;SDS011;24834;44.444;26.098;2023-07-08T17:19:55;6.50;;;6.50;;
39082;SDS011;24834;44.444;26.098;2023-07-08T17:26:08;6.25;;;6.25;;
39082;SDS011;24834;44.444;26.098;2023-07-08T17:32:12;9.25;;;9.25;;
39082;SDS011;24834;44.444;26.098;2023-07-08T17:38:18;12.00;;;11.00;;
39082;SDS011;24834;44.444;26.098;2023-07-08T17:44:23;10.00;;;8.75;;
39082;SDS011;24834;44.444;26.098;2023-07-08T17:50:27;10.00;;;10.00;;
39082;SDS011;24834;44.444;26.098;2023-07-08T17:56:39;10.75;;;10.25;;
39082;SDS011;24834;44.444;26.098;2023-07-08T18:02:46;11.00;;;10.00;;
39082;SDS011;24834;44.444;26.098;2023-07-08T18:08:50;9.25;;;9.25;;
39082;SDS011;24834;44.444;26.098;2023-07-08T18:14:53;12.00;;;10.00;;
39082;SDS011;24834;44.444;26.098;2023-07-08T18:20:58;8.00;;;8.00;;
39082;SDS011;24834;44.444;26.098;2023-07-08T18:27:03;8.75;;;8.50;;
39082;SDS011;24834;44.444;26.098;2023-07-08T18:33:10;16.25;;;16.25;;
39082;SDS011;24834;44.444;26.098;2023-07-08T18:39:15;16.00;;;14.75;;
39082;SDS011;24834;44.444;26.098;2023-07-08T18:45:20;9.75;;;7.75;;
39082;SDS011;24834;44.444;26.098;2023-07-08T18:51:36;22.67;;;20.00;;
39082;SDS011;24834;44.444;26.098;2023-07-08T18:57:44;21.50;;;21.25;;
39082;SDS011;24834;44.444;26.098;2023-07-08T19:03:50;18.25;;;18.25;;
39082;SDS011;24834;44.444;26.098;2023-07-08T19:09:53;16.33;;;16.00;;
39082;SDS011;24834;44.444;26.098;2023-07-08T19:15:58;34.67;;;31.33;;
39082;SDS011;24834;44.444;26.098;2023-07-08T19:22:00;13.50;;;11.75;;
39082;SDS011;24834;44.444;26.098;2023-07-08T19:28:05;10.00;;;9.00;;
39082;SDS011;24834;44.444;26.098;2023-07-08T19:34:10;5.50;;;5.50;;
39082;SDS011;24834;44.444;26.098;2023-07-08T19:40:15;11.00;;;9.25;;
39082;SDS011;24834;44.444;26.098;2023-07-08T19:46:19;9.00;;;7.75;;
39082;SDS011;24834;44.444;26.098;2023-07-08T19:52:22;7.25;;;7.25;;
39082;SDS011;24834;44.444;26.098;2023-07-08T19:58:24;9.00;;;9.00;;
39082;SDS011;24834;44.444;26.098;2023-07-08T20:04:27;13.50;;;12.00;;
39082;SDS011;24834;44.444;26.098;2023-07-08T20:10:30;12.50;;;11.00;;
39082;SDS011;24834;44.444;26.098;2023-07-08T20:16:32;10.00;;;10.00;;
39082;SDS011;24834;44.444;26.098;2023-07-08T20:22:36;9.50;;;9.50;;
39082;SDS011;24834;44.444;26.098;2023-07-08T20:28:44;11.00;;;11.00;;
39082;SDS011;24834;44.444;26.098;2023-07-08T20:34:48;10.33;;;10.33;;
39082;SDS011;24834;44.444;26.098;2023-07-08T20:40:50;10.25;;;9.50;;
39082;SDS011;24834;44.444;26.098;2023-07-08T20:46:55;9.75;;;9.75;;
39082;SDS011;24834;44.444;26.098;2023-07-08T20:53:00;15.50;;;14.50;;
39082;SDS011;24834;44.444;26.098;2023-07-08T20:59:04;14.67;;;14.00;;
39082;SDS011;24834;44.444;26.098;2023-07-08T21:05:16;15.50;;;15.50;;
39082;SDS011;24834;44.444;26.098;2023-07-08T21:11:20;12.75;;;12.25;;
39082;SDS011;24834;44.444;26.098;2023-07-08T21:17:23;13.33;;;12.33;;
39082;SDS011;24834;44.444;26.098;2023-07-08T21:23:30;13.75;;;12.75;;
39082;SDS011;24834;44.444;26.098;2023-07-08T21:29:34;13.67;;;13.67;;
39082;SDS011;24834;44.444;26.098;2023-07-08T21:35:40;12.00;;;9.50;;
39082;SDS011;24834;44.444;26.098;2023-07-08T21:41:44;11.50;;;9.25;;
39082;SDS011;24834;44.444;26.098;2023-07-08T21:47:48;11.75;;;11.75;;
39082;SDS011;24834;44.444;26.098;2023-07-08T21:53:55;15.50;;;12.75;;
39082;SDS011;24834;44.444;26.098;2023-07-08T21:59:59;14.50;;;13.50;;
39082;SDS011;24834;44.444;26.098;2023-07-08T22:06:05;8.75;;;8.75;;
39082;SDS011;24834;44.444;26.098;2023-07-08T22:12:10;13.00;;;12.00;;
39082;SDS011;24834;44.444;26.098;2023-07-08T22:18:15;12.00;;;10.33;;
39082;SDS011;24834;44.444;26.098;2023-07-08T22:24:24;13.25;;;11.75;;
39082;SDS011;24834;44.444;26.098;2023-07-08T22:30:26;13.67;;;13.00;;
39082;SDS011;24834;44.444;26.098;2023-07-08T22:36:29;12.25;;;11.75;;
39082;SDS011;24834;44.444;26.098;2023-07-08T22:42:31;17.67;;;15.33;;
39082;SDS011;24834;44.444;26.098;2023-07-08T22:48:33;12.00;;;12.00;;
39082;SDS011;24834;44.444;26.098;2023-07-08T22:54:38;15.00;;;13.33;;
39082;SDS011;24834;44.444;26.098;2023-07-08T23:00:41;14.33;;;13.67;;
39082;SDS011;24834;44.444;26.098;2023-07-08T23:06:43;16.00;;;15.33;;
39082;SDS011;24834;44.444;26.098;2023-07-08T23:12:46;15.00;;;13.67;;
39082;SDS011;24834;44.444;26.098;2023-07-08T23:18:53;15.67;;;14.33;;
39082;SDS011;24834;44.444;26.098;2023-07-08T23:24:57;11.67;;;11.67;;
39082;SDS011;24834;44.444;26.098;2023-07-08T23:30:59;19.33;;;15.67;;
39082;SDS011;24834;44.444;26.098;2023-07-08T23:37:01;15.00;;;14.67;;
39082;SDS011;24834;44.444;26.098;2023-07-08T23:43:04;16.33;;;15.33;;
39082;SDS011;24834;44.444;26.098;2023-07-08T23:55:33;18.33;;;18.33;;
